Fort Myers, FL

6:01 PM EDT on June 25, 2017 (GMT -0400)
Beckler Riverside | | Change Station

Elev 5 ft 26.62 °N, 81.89 °W | Updated 15 seconds ago

Partly Cloudy
Partly Cloudy
81.0 °F
Feels Like 87 °F
N
0.2
Wind Variable Wind from SSE
Gusts 2.5 mph

Today
High -- | Low -- °F
--% Chance of Precip.
Yesterday
High -- | Low -- °F
Precip. -- in
Pressure 30.04 in
Visibility 10.0 miles
Clouds Few 4700 ft
Heat Index 87 °F
Dew Point 76 °F
Humidity 85%
Rainfall 0.00 in
Snow Depth Not available.
6:35 AM 8:24 PM
Waxing Crescent, 5% visible
METAR KFMY 252153Z 36008KT 10SM FEW047 28/25 A3004 RMK AO2 LTG DSNT N AND NW RAE06 TSB10E37 SLP173 P0013 T02830250
Pressure 30.04 in
Visibility 10.0 miles
Clouds Few 4700 ft
Heat Index 87 °F
Dew Point 76 °F
Humidity 85%
Rainfall 0.00 in
Snow Depth Not available.
6:35 AM 8:24 PM
Waxing Crescent, 5% visible
METAR KFMY 252153Z 36008KT 10SM FEW047 28/25 A3004 RMK AO2 LTG DSNT N AND NW RAE06 TSB10E37 SLP173 P0013 T02830250

Get Severe Weather Alerts

Thanks for signing up!

Be on the lookout for a verification email in your inbox.

You'll start receiving the daily forecast at 6 AM.

×

10-Day Weather Forecast

Almanac

Astronomy

Jun. 25, 2017 Rise Set
Actual Time
Civil Twilight
Nautical Twilight
Astronomical Twilight
Moon
Length of Visible Light
Length of Day
Tomorrow will be .
, % of the Moon is Illuminated

Today's Extremes

State Highs State Lows

Community

WunderPhotos

Category 6

Welcome to Category 6. This is the collective home for Weather Underground's featured writeups by Dr. Jeff Masters (right), Bob Henson (left), Chris Burt, and other regular contributors.

Nearby

Air Quality

  Air Quality AQ Index Pollutant
Not available.

Snow Depth

Station Depth Elevation

Earthquake Activity

City Distance Mag. Time & Date
Minimum magnitude displayed is 2.5.

Coastal Water Temperatures

Place Temperature

Stations

Nearby Weather Stations

Station Location Temp. Windchill Dew Point Humidity Wind Precip. Elev Updated Type
                   

Watches & Warnings

There are currently no watches in effect.